Time;durP1;ratioP1;P1;durP2;ratioP2;P2;SDS_P1;SDS_P2;PMS_P1;PMS_P2;Temp;Humidity;BMP_temperature;BMP_pressure;BME280_temperature;BME280_humidity;BME280_pressure;Samples;Min_cycle;Max_cycle;Signal;HPM_P1;HPM_P2
2021/12/14 10:09:10;;;;;;;80.57;18.35;;;;;;;0.10;100.00;96156.13;5110094;27;20361;-67
2021/12/14 10:11:48;;;;;;;121.63;23.08;;;;;;;0.14;100.00;96089.75;5108904;28;20024;-68
2021/12/14 10:14:15;;;;;;;90.15;22.25;;;;;;;0.23;100.00;96035.19;5109107;28;20111;-68
2021/12/14 10:16:43;;;;;;;107.25;23.13;;;;;;;0.31;100.00;95994.75;5108823;28;20046;-67
2021/12/14 10:19:13;;;;;;;107.28;22.85;;;;;;;0.33;100.00;95950.63;5092135;28;20414;-68
2021/12/14 10:21:45;;;;;;;102.68;21.10;;;;;;;0.37;100.00;95912.38;5114582;22;20056;-66
2021/12/14 10:24:10;;;;;;;99.63;19.73;;;;;;;0.44;100.00;95873.75;5088605;28;20036;-66
2021/12/14 10:26:42;;;;;;;94.53;18.48;;;;;;;0.41;100.00;95847.75;5051001;28;20525;-66
2021/12/14 10:29:08;;;;;;;85.95;20.15;;;;;;;0.45;100.00;95825.31;5082400;28;20061;-66
2021/12/14 10:31:48;;;;;;;75.60;18.75;;;;;;;0.45;100.00;95798.97;5095173;28;20481;-66
2021/12/14 10:34:26;;;;;;;62.00;18.42;;;;;;;0.50;100.00;95783.41;5108562;28;20289;-66
2021/12/14 10:37:14;;;;;;;74.35;17.08;;;;;;;0.55;100.00;95763.41;5109877;28;20039;-66
2021/12/14 10:45:24;;;;;;;102.32;16.70;;;;;;;0.66;100.00;95708.56;5075522;28;20426;-66
2021/12/14 10:47:49;;;;;;;95.68;17.45;;;;;;;0.68;100.00;95693.34;5091297;28;20028;-66
2021/12/14 10:50:20;;;;;;;87.40;17.35;;;;;;;0.60;100.00;95677.66;5074678;28;20035;-66
2021/12/14 10:52:46;;;;;;;84.50;15.85;;;;;;;0.60;100.00;95667.13;5101471;28;20476;-66
2021/12/14 10:55:24;;;;;;;37.90;15.38;;;;;;;0.52;100.00;95642.50;5101428;28;20107;-66
2021/12/14 10:57:53;;;;;;;138.88;15.95;;;;;;;0.41;100.00;95627.19;5098741;28;20024;-66
2021/12/14 11:00:33;;;;;;;108.78;15.13;;;;;;;0.40;100.00;95633.47;5094199;28;20036;-66
2021/12/14 11:03:08;;;;;;;66.97;15.10;;;;;;;0.45;100.00;95633.75;5109201;28;20058;-66
2021/12/14 11:05:34;;;;;;;88.30;15.00;;;;;;;0.47;100.00;95615.91;5108092;28;20051;-66
2021/12/14 11:08:05;;;;;;;96.95;14.40;;;;;;;0.48;100.00;95596.47;5107967;28;20359;-66
2021/12/14 11:10:37;;;;;;;135.77;14.65;;;;;;;0.54;100.00;95595.72;5109012;28;20027;-66
2021/12/14 11:13:09;;;;;;;88.93;14.15;;;;;;;0.57;100.00;95594.50;5108962;28;20141;-66
2021/12/14 11:15:45;;;;;;;91.35;14.93;;;;;;;0.55;100.00;95588.63;5107675;28;20027;-66
2021/12/14 11:18:20;;;;;;;38.10;13.75;;;;;;;0.72;100.00;95584.69;5108403;28;20523;-66
2021/12/14 11:21:14;;;;;;;121.20;13.93;;;;;;;0.74;100.00;95580.03;5095341;28;20114;-66
2021/12/14 11:23:43;;;;;;;94.18;14.65;;;;;;;0.83;100.00;95578.06;5081620;28;20537;-66
2021/12/14 11:26:34;;;;;;;24.25;13.27;;;;;;;0.96;100.00;95587.88;5091088;28;20043;-66
2021/12/14 11:29:07;;;;;;;47.72;15.25;;;;;;;1.09;100.00;95582.72;5093851;28;20028;-66
2021/12/14 11:31:42;;;;;;;38.83;16.85;;;;;;;1.09;100.00;95577.44;5067661;28;20406;-65
2021/12/14 11:34:15;;;;;;;33.03;15.57;;;;;;;0.99;100.00;95574.34;5075285;28;20031;-66
2021/12/14 11:36:51;;;;;;;32.97;16.13;;;;;;;1.05;100.00;95576.19;5066078;28;20024;-66
2021/12/14 11:39:23;;;;;;;54.28;15.40;;;;;;;1.07;100.00;95574.97;5091199;28;20032;-66
2021/12/14 11:42:04;;;;;;;42.50;17.67;;;;;;;1.07;100.00;95574.97;5086056;28;20112;-66
2021/12/14 11:44:32;;;;;;;52.50;15.32;;;;;;;1.03;100.00;95575.56;5094938;28;20424;-65
2021/12/14 11:47:08;;;;;;;64.78;16.15;;;;;;;0.97;100.00;95579.78;5094887;28;20107;-66
2021/12/14 11:49:55;;;;;;;32.58;16.45;;;;;;;1.00;100.00;95571.50;5094926;28;20032;-65
2021/12/14 11:52:53;;;;;;;28.40;16.67;;;;;;;1.05;100.00;95584.09;5079895;28;20410;-65
2021/12/14 11:56:00;;;;;;;82.13;16.52;;;;;;;1.01;100.00;95582.88;5094541;28;20066;-65
2021/12/14 11:58:50;;;;;;;109.85;17.77;;;;;;;1.05;100.00;95578.81;5076794;28;20114;-66
2021/12/14 12:01:37;;;;;;;29.35;15.77;;;;;;;1.10;100.00;95587.81;5093209;28;20020;-66
2021/12/14 12:04:16;;;;;;;33.22;15.20;;;;;;;1.11;100.00;95586.78;5093461;28;20028;-66
2021/12/14 12:09:43;;;;;;;34.63;16.17;;;;;;;1.11;100.00;95597.34;5094586;28;20032;-65
2021/12/14 12:12:11;;;;;;;29.65;16.08;;;;;;;1.13;100.00;95600.59;5094200;28;20024;-66
2021/12/14 12:14:55;;;;;;;37.22;16.40;;;;;;;1.18;100.00;95594.72;5092996;28;20058;-66
2021/12/14 12:17:40;;;;;;;27.98;15.77;;;;;;;1.21;100.00;95593.56;5094347;28;20050;-65
2021/12/14 12:20:18;;;;;;;32.15;15.57;;;;;;;1.23;100.00;95599.44;5093006;28;20030;-66
2021/12/14 12:23:06;;;;;;;37.22;17.02;;;;;;;1.17;100.00;95599.19;5068965;28;20131;-65
2021/12/14 12:25:48;;;;;;;38.30;17.65;;;;;;;1.19;100.00;95598.19;5083733;28;20020;-66
2021/12/14 12:28:25;;;;;;;46.17;18.10;;;;;;;1.16;100.00;95602.03;5080562;28;20027;-66
2021/12/14 12:31:12;;;;;;;43.67;18.23;;;;;;;1.15;100.00;95609.13;5092863;28;20061;-65
2021/12/14 12:33:52;;;;;;;53.20;17.95;;;;;;;1.17;100.00;95604.47;5094001;28;20027;-65
2021/12/14 12:36:23;;;;;;;44.15;18.08;;;;;;;1.15;100.00;95608.31;5092582;28;20031;-65
2021/12/14 12:39:03;;;;;;;52.35;17.55;;;;;;;1.15;100.00;95610.97;5075613;28;20024;-65
2021/12/14 12:41:47;;;;;;;31.70;16.67;;;;;;;1.17;100.00;95604.47;5092510;28;20027;-65
2021/12/14 12:44:28;;;;;;;34.72;18.45;;;;;;;1.26;100.00;95604.31;5093727;28;20020;-65
2021/12/14 12:46:56;;;;;;;32.78;17.88;;;;;;;1.36;100.00;95610.06;5092427;28;20063;-65
2021/12/14 12:49:38;;;;;;;33.42;18.60;;;;;;;1.44;100.00;95607.28;5092288;28;20028;-64
2021/12/14 12:52:17;;;;;;;38.15;18.05;;;;;;;1.52;100.00;95603.63;5075346;28;20024;-65
2021/12/14 12:54:48;;;;;;;37.45;19.25;;;;;;;1.48;100.00;95615.63;5092364;28;20028;-65
2021/12/14 12:57:28;;;;;;;39.83;19.63;;;;;;;1.50;100.00;95614.41;5093436;28;20055;-65
2021/12/14 13:00:10;;;;;;;35.60;18.90;;;;;;;1.51;100.00;95607.28;5093349;28;20028;-65
2021/12/14 13:02:36;;;;;;;35.30;19.30;;;;;;;1.54;100.00;95607.75;5092149;28;20073;-65
2021/12/14 13:05:06;;;;;;;37.85;18.52;;;;;;;1.54;100.00;95604.28;5093278;28;20266;-65
2021/12/14 13:08:03;;;;;;;47.50;18.50;;;;;;;1.48;100.00;95597.94;5093355;28;20024;-63
2021/12/14 13:10:29;;;;;;;38.50;19.75;;;;;;;1.49;100.00;95601.41;5090014;28;20495;-66
2021/12/14 13:13:25;;;;;;;35.13;19.45;;;;;;;1.50;100.00;95601.19;5091512;28;20058;-65
2021/12/14 13:16:25;;;;;;;35.28;19.50;;;;;;;1.59;100.00;95601.84;5093362;28;20043;-65
2021/12/14 13:18:56;;;;;;;36.60;19.08;;;;;;;1.66;100.00;95616.72;5070539;28;20039;-66
2021/12/14 13:21:40;;;;;;;38.53;20.73;;;;;;;1.70;100.00;95623.22;5092647;28;20023;-67
2021/12/14 13:24:22;;;;;;;42.85;22.45;;;;;;;1.62;100.00;95614.66;5054788;28;20044;-66
2021/12/14 13:27:07;;;;;;;38.92;21.67;;;;;;;1.61;100.00;95619.13;5069114;28;20028;-65
2021/12/14 13:29:35;;;;;;;44.00;21.48;;;;;;;1.57;100.00;95617.91;5092834;28;20028;-66
2021/12/14 13:32:35;;;;;;;40.00;21.65;;;;;;;1.57;100.00;95628.47;5092873;28;20487;-66
2021/12/14 13:35:06;;;;;;;38.15;21.42;;;;;;;1.58;100.00;95634.56;5092743;28;20030;-66
2021/12/14 13:37:37;;;;;;;43.55;23.00;;;;;;;1.58;100.00;95629.28;5092587;28;20031;-66
2021/12/14 13:40:10;;;;;;;41.17;22.27;;;;;;;1.56;100.00;95637.41;5092752;28;20543;-66
2021/12/14 13:42:51;;;;;;;38.50;21.45;;;;;;;1.55;100.00;95627.84;5092361;28;20024;-66
2021/12/14 13:45:27;;;;;;;45.58;23.85;;;;;;;1.55;100.00;95630.50;5091442;28;20486;-66
2021/12/14 13:47:54;;;;;;;40.08;22.08;;;;;;;1.53;100.00;95636.97;5082006;28;20028;-66
2021/12/14 13:50:30;;;;;;;41.08;21.60;;;;;;;1.49;100.00;95639.16;5073889;28;20024;-66
2021/12/14 13:52:56;;;;;;;37.42;20.20;;;;;;;1.46;100.00;95639.56;5079925;28;20051;-66
2021/12/14 13:55:24;;;;;;;37.03;20.90;;;;;;;1.43;100.00;95647.88;5075117;28;20424;-66
2021/12/14 13:58:05;;;;;;;41.88;21.75;;;;;;;1.41;100.00;95640.16;5057855;28;20388;-67
2021/12/14 14:00:39;;;;;;;36.92;20.65;;;;;;;1.41;100.00;95645.44;5072170;28;20025;-66
2021/12/14 14:03:05;;;;;;;35.50;20.33;;;;;;;1.39;100.00;95647.44;5077252;28;20033;-66
2021/12/14 14:05:34;;;;;;;39.55;19.55;;;;;;;1.36;100.00;95649.66;5071656;28;20033;-66
2021/12/14 14:08:05;;;;;;;33.58;18.48;;;;;;;1.34;100.00;95659.59;5085423;28;20402;-66
2021/12/14 14:10:31;;;;;;;35.42;18.20;;;;;;;1.33;100.00;95657.97;5092050;28;20032;-65
2021/12/14 14:13:10;;;;;;;31.10;17.85;;;;;;;1.32;100.00;95661.63;5073693;28;20164;-65
2021/12/14 14:15:40;;;;;;;95.82;18.30;;;;;;;1.28;100.00;95657.72;5091164;28;20028;-65
2021/12/14 14:18:09;;;;;;;56.83;17.73;;;;;;;1.26;100.00;95649.19;5091016;28;20016;-65
2021/12/14 14:20:46;;;;;;;40.92;16.88;;;;;;;1.21;100.00;95646.31;5091492;28;20047;-65
2021/12/14 14:23:14;;;;;;;34.72;16.85;;;;;;;1.21;100.00;95651.59;5079400;28;20029;-65
2021/12/14 14:25:51;;;;;;;29.13;16.30;;;;;;;1.23;100.00;95649.56;5076900;28;20163;-65
2021/12/14 14:28:26;;;;;;;31.20;16.73;;;;;;;1.25;100.00;95653.66;5062910;28;20048;-65
2021/12/14 14:30:53;;;;;;;35.25;15.77;;;;;;;1.25;100.00;95658.94;5070775;28;20040;-65
2021/12/14 14:33:44;;;;;;;26.38;14.65;;;;;;;1.26;100.00;95663.19;5068834;28;20055;-65
2021/12/14 14:36:30;;;;;;;30.10;14.60;;;;;;;1.28;100.00;95658.53;5059193;28;20047;-65
2021/12/14 14:39:24;;;;;;;23.73;15.00;;;;;;;1.30;100.00;95666.25;5066624;28;20059;-65
2021/12/14 14:41:56;;;;;;;25.95;13.48;;;;;;;1.29;100.00;95675.19;5079764;28;20074;-65
2021/12/14 14:44:39;;;;;;;27.95;13.05;;;;;;;1.22;100.00;95685.69;5090074;28;20024;-65
2021/12/14 14:47:12;;;;;;;39.33;12.90;;;;;;;1.21;100.00;95685.91;5090307;28;20378;-65
2021/12/14 14:49:37;;;;;;;38.08;14.65;;;;;;;1.18;100.00;95687.06;5073048;28;20442;-65
2021/12/14 14:52:23;;;;;;;40.67;13.77;;;;;;;1.16;100.00;95683.81;5077675;28;20124;-65
2021/12/14 14:54:50;;;;;;;45.55;13.73;;;;;;;1.12;100.00;95674.66;5092071;28;20028;-65
2021/12/14 14:57:24;;;;;;;37.58;12.55;;;;;;;1.09;100.00;95686.44;5068728;28;20031;-65
2021/12/14 14:59:55;;;;;;;37.75;12.52;;;;;;;1.07;100.00;95682.31;5080206;28;20024;-65
2021/12/14 15:02:40;;;;;;;33.30;13.73;;;;;;;1.06;100.00;95688.59;5094997;28;20106;-65
2021/12/14 15:05:06;;;;;;;36.35;12.35;;;;;;;1.05;100.00;95692.25;5095056;28;20027;-65
2021/12/14 15:07:53;;;;;;;31.30;11.77;;;;;;;1.03;100.00;95694.28;5089669;28;20490;-65
2021/12/14 15:10:20;;;;;;;71.85;13.27;;;;;;;0.99;100.00;95700.94;5083488;28;20024;-65
2021/12/14 15:13:25;;;;;;;28.58;11.73;;;;;;;0.96;100.00;95688.13;5085384;28;20028;-65
2021/12/14 15:16:18;;;;;;;24.63;12.13;;;;;;;0.93;100.00;95691.97;5093493;28;20506;-65
2021/12/14 15:18:53;;;;;;;35.78;11.18;;;;;;;0.93;100.00;95693.78;5094769;28;20046;-64
2021/12/14 15:21:24;;;;;;;38.08;11.75;;;;;;;0.91;100.00;95701.88;5092897;28;20028;-67
2021/12/14 15:24:26;;;;;;;48.78;12.63;;;;;;;0.87;100.00;95703.28;5079772;28;20029;-63
2021/12/14 15:27:10;;;;;;;40.97;11.90;;;;;;;0.85;100.00;95697.34;5082833;28;20030;-65
2021/12/14 15:29:41;;;;;;;31.85;12.35;;;;;;;0.85;100.00;95708.72;5094374;28;20145;-65
2021/12/14 15:32:21;;;;;;;48.85;11.65;;;;;;;0.85;100.00;95716.63;5082089;28;20043;-65
2021/12/14 15:34:56;;;;;;;29.67;11.30;;;;;;;0.85;100.00;95715.81;5080286;28;20032;-65
2021/12/14 15:37:46;;;;;;;20.48;11.55;;;;;;;0.85;100.00;95711.34;5091949;28;20064;-65
2021/12/14 15:40:11;;;;;;;50.97;12.43;;;;;;;0.83;100.00;95717.84;5076032;28;20040;-65
2021/12/14 15:42:43;;;;;;;43.97;12.27;;;;;;;0.79;100.00;95720.03;5092599;28;20419;-65
2021/12/14 15:45:09;;;;;;;62.42;13.90;;;;;;;0.79;100.00;95720.03;5078899;28;20391;-65
2021/12/14 15:48:10;;;;;;;34.17;14.27;;;;;;;0.78;100.00;95726.31;5093432;28;20028;-65
2021/12/14 15:50:37;;;;;;;49.40;13.93;;;;;;;0.76;100.00;95714.31;5076380;28;20028;-65
2021/12/14 15:53:17;;;;;;;44.40;13.63;;;;;;;0.74;100.00;95718.97;5094719;28;20179;-65
2021/12/14 15:55:43;;;;;;;23.92;12.07;;;;;;;0.74;100.00;95726.88;5093329;28;20024;-65
2021/12/14 15:58:19;;;;;;;58.15;13.90;;;;;;;0.73;100.00;95726.06;5093492;28;20073;-65
2021/12/14 16:00:45;;;;;;;63.63;14.48;;;;;;;0.73;100.00;95730.50;5094949;28;20020;-65
2021/12/14 16:03:23;;;;;;;37.22;13.63;;;;;;;0.71;100.00;95733.34;5080828;28;20065;-65
2021/12/14 16:05:49;;;;;;;44.05;13.23;;;;;;;0.72;100.00;95732.34;5076354;28;20405;-65
2021/12/14 16:08:19;;;;;;;25.55;11.75;;;;;;;0.73;100.00;95727.88;5094353;28;20020;-65
2021/12/14 16:10:51;;;;;;;44.72;13.60;;;;;;;0.72;100.00;95736.78;5093132;28;20430;-65
2021/12/14 16:16:09;;;;;;;33.20;14.45;;;;;;;0.69;100.00;95734.53;5094357;28;20055;-65
2021/12/14 16:18:35;;;;;;;42.08;14.73;;;;;;;0.69;100.00;95745.91;5094240;28;20027;-65
2021/12/14 16:21:00;;;;;;;32.53;13.68;;;;;;;0.69;100.00;95756.44;5075943;28;20471;-65
2021/12/14 16:23:29;;;;;;;42.63;14.07;;;;;;;0.68;100.00;95751.38;5052715;22;20054;-67
2021/12/14 16:25:56;;;;;;;36.42;14.70;;;;;;;0.67;100.00;95755.81;5045865;28;20434;-67
2021/12/14 16:28:25;;;;;;;30.10;15.43;;;;;;;0.66;100.00;95762.09;5052464;28;20025;-67
2021/12/14 16:30:55;;;;;;;29.85;14.05;;;;;;;0.67;100.00;95757.63;5035797;28;20029;-67
2021/12/14 16:33:30;;;;;;;35.22;14.10;;;;;;;0.66;100.00;95758.66;5070644;28;20028;-67
2021/12/14 16:36:01;;;;;;;36.70;14.30;;;;;;;0.65;100.00;95749.94;5056209;28;20046;-67
2021/12/14 16:38:41;;;;;;;75.53;14.07;;;;;;;0.65;100.00;95744.66;5055587;28;20126;-67
2021/12/14 16:41:09;;;;;;;56.83;12.13;;;;;;;0.62;100.00;95744.19;5073563;28;20048;-67
2021/12/14 16:43:42;;;;;;;37.05;13.50;;;;;;;0.60;100.00;95741.75;5073428;28;20027;-67
2021/12/14 16:46:12;;;;;;;62.38;13.95;;;;;;;0.58;100.00;95749.84;5055502;28;20024;-67
2021/12/14 16:48:39;;;;;;;40.05;13.85;;;;;;;0.59;100.00;95753.28;5073271;28;20059;-67
2021/12/14 16:51:08;;;;;;;39.58;14.00;;;;;;;0.59;100.00;95755.94;5071772;28;20029;-67
2021/12/14 16:53:42;;;;;;;28.08;14.45;;;;;;;0.57;100.00;95748.22;5071889;28;20021;-67
2021/12/14 16:56:10;;;;;;;51.58;13.77;;;;;;;0.58;100.00;95746.38;5071960;28;20032;-67
2021/12/14 16:58:35;;;;;;;48.30;12.75;;;;;;;0.56;100.00;95751.84;5071813;28;20024;-67
2021/12/14 17:01:10;;;;;;;76.40;14.88;;;;;;;0.53;100.00;95749.56;5068536;28;20078;-67
2021/12/14 17:03:37;;;;;;;36.95;12.85;;;;;;;0.53;100.00;95752.19;5072086;28;20434;-67
2021/12/14 17:06:08;;;;;;;46.85;13.40;;;;;;;0.54;100.00;95756.50;5072385;28;20111;-67
2021/12/14 17:08:35;;;;;;;98.30;13.85;;;;;;;0.54;100.00;95753.00;5070886;28;20379;-67
2021/12/14 17:11:05;;;;;;;72.00;11.98;;;;;;;0.54;100.00;95758.28;5072377;28;20024;-67
2021/12/14 17:13:38;;;;;;;99.57;13.18;;;;;;;0.52;100.00;95763.75;5054575;28;20020;-67
2021/12/14 17:16:06;;;;;;;74.35;12.77;;;;;;;0.49;100.00;95756.22;5070774;28;20016;-67
2021/12/14 17:18:55;;;;;;;104.43;13.23;;;;;;;0.50;100.00;95767.59;5070388;28;20059;-67
2021/12/14 17:21:24;;;;;;;99.70;14.25;;;;;;;0.48;100.00;95764.31;5071843;28;20089;-67
2021/12/14 17:24:04;;;;;;;50.45;12.93;;;;;;;0.48;100.00;95775.69;5053354;28;20033;-67
2021/12/14 17:26:30;;;;;;;101.95;13.65;;;;;;;0.49;100.00;95782.59;5069356;28;20144;-67
2021/12/14 17:29:04;;;;;;;107.75;15.07;;;;;;;0.52;100.00;95787.47;5072079;28;20024;-67
2021/12/14 17:31:38;;;;;;;53.00;12.55;;;;;;;0.54;100.00;95789.91;5070828;28;20093;-67
2021/12/14 17:34:16;;;;;;;62.03;12.90;;;;;;;0.53;100.00;95797.00;5070611;28;20024;-67
2021/12/14 17:36:46;;;;;;;32.15;12.30;;;;;;;0.53;100.00;95797.00;5070717;28;20021;-67
2021/12/14 17:39:26;;;;;;;94.10;11.77;;;;;;;0.52;100.00;95792.75;5070479;28;20025;-67
2021/12/14 17:41:58;;;;;;;137.70;13.80;;;;;;;0.51;100.00;95791.13;5070662;28;20021;-67
2021/12/14 17:44:27;;;;;;;50.55;12.60;;;;;;;0.51;100.00;95804.28;5070301;28;20036;-67
2021/12/14 17:47:00;;;;;;;100.05;13.48;;;;;;;0.51;100.00;95803.47;5070426;28;20031;-67
2021/12/14 17:49:26;;;;;;;84.25;13.13;;;;;;;0.50;100.00;95794.75;5070488;28;20029;-67
2021/12/14 17:52:08;;;;;;;45.33;11.30;;;;;;;0.51;100.00;95798.19;5070441;28;20386;-67
2021/12/14 17:55:00;;;;;;;66.13;12.98;;;;;;;0.49;100.00;95800.22;5067346;28;20158;-67
2021/12/14 17:57:33;;;;;;;68.50;13.60;;;;;;;0.47;100.00;95796.94;5068093;28;20037;-67
2021/12/14 18:00:18;;;;;;;84.78;13.13;;;;;;;0.45;100.00;95801.59;5070246;28;20492;-67
2021/12/14 18:02:48;;;;;;;42.75;11.95;;;;;;;0.44;100.00;95805.22;5071515;28;20099;-67
2021/12/14 18:05:18;;;;;;;54.97;11.35;;;;;;;0.42;100.00;95801.94;5063741;28;20368;-67
2021/12/14 18:08:15;;;;;;;68.30;12.50;;;;;;;0.41;100.00;95805.59;5047719;28;20013;-67
2021/12/14 18:11:00;;;;;;;59.88;11.65;;;;;;;0.38;100.00;95805.97;5051253;28;20391;-67
2021/12/14 18:13:56;;;;;;;41.72;11.68;;;;;;;0.37;100.00;95809.59;5047836;28;20291;-68
2021/12/14 18:16:26;;;;;;;73.05;12.50;;;;;;;0.35;100.00;95807.16;5046574;28;20029;-66
2021/12/14 18:19:04;;;;;;;105.30;12.68;;;;;;;0.33;100.00;95805.72;5050230;28;20055;-67
2021/12/14 18:21:54;;;;;;;84.57;11.95;;;;;;;0.30;100.00;95804.22;5046666;28;20268;-68
2021/12/14 18:24:29;;;;;;;30.77;10.00;;;;;;;0.27;100.00;95799.34;5038560;28;20048;-68
2021/12/14 18:26:58;;;;;;;58.40;11.00;;;;;;;0.23;100.00;95804.16;5048599;28;20036;-67
2021/12/14 18:29:33;;;;;;;96.97;12.18;;;;;;;0.14;100.00;95810.53;5050649;28;20543;-67
2021/12/14 18:32:02;;;;;;;55.97;10.48;;;;;;;0.09;100.00;95807.59;5037661;28;20035;-67
2021/12/14 18:34:29;;;;;;;45.22;10.05;;;;;;;0.05;100.00;95811.59;5051573;28;20036;-67
2021/12/14 18:37:03;;;;;;;69.05;11.25;;;;;;;-0.03;100.00;95809.06;5035807;28;20632;-67
2021/12/14 18:39:31;;;;;;;50.65;9.98;;;;;;;-0.09;100.00;95801.91;5054153;28;20032;-67
2021/12/14 18:42:11;;;;;;;59.92;9.65;;;;;;;-0.18;100.00;95811.69;5053708;28;20441;-67
2021/12/14 18:44:40;;;;;;;46.30;9.90;;;;;;;-0.24;100.00;95820.28;5049944;28;20103;-67
2021/12/14 18:47:17;;;;;;;29.02;9.23;;;;;;;-0.28;100.00;95823.47;5053050;28;20032;-66
2021/12/14 18:49:47;;;;;;;54.83;10.07;;;;;;;-0.35;100.00;95826.81;5052840;28;20028;-67
2021/12/14 18:52:25;;;;;;;34.35;9.50;;;;;;;-0.39;100.00;95822.09;5057413;28;20433;-67
2021/12/14 18:54:56;;;;;;;48.10;10.02;;;;;;;-0.42;100.00;95831.19;5032664;28;20507;-68
2021/12/14 18:57:22;;;;;;;39.85;8.90;;;;;;;-0.44;100.00;95830.50;5048001;28;20024;-68
2021/12/14 18:59:53;;;;;;;17.55;9.00;;;;;;;-0.44;100.00;95824.44;5056343;28;20115;-68
2021/12/14 19:02:23;;;;;;;23.10;9.00;;;;;;;-0.46;100.00;95832.50;5056667;28;20021;-68
2021/12/14 19:04:51;;;;;;;13.75;8.63;;;;;;;-0.45;100.00;95833.31;5073419;28;20036;-68
2021/12/14 19:07:27;;;;;;;36.78;8.75;;;;;;;-0.47;100.00;95833.50;5073210;28;20017;-68
2021/12/14 19:09:53;;;;;;;27.23;8.38;;;;;;;-0.47;100.00;95832.69;5073304;28;20032;-68
2021/12/14 19:12:24;;;;;;;23.48;9.45;;;;;;;-0.48;100.00;95821.34;5073139;28;20046;-68
2021/12/14 19:15:25;;;;;;;17.23;8.52;;;;;;;-0.47;100.00;95822.97;5073077;28;20497;-68
2021/12/14 19:17:54;;;;;;;19.55;8.13;;;;;;;-0.47;100.00;95816.91;5073057;28;20479;-68
2021/12/14 19:20:49;;;;;;;30.88;9.20;;;;;;;-0.49;100.00;95816.25;5056696;28;20025;-68
2021/12/14 19:23:28;;;;;;;32.40;9.93;;;;;;;-0.54;100.00;95816.81;5050762;28;20575;-68
2021/12/14 19:25:53;;;;;;;34.55;8.80;;;;;;;-0.55;100.00;95820.41;5062635;28;20040;-68
2021/12/14 19:28:20;;;;;;;17.55;8.65;;;;;;;-0.54;100.00;95823.84;5074029;28;20483;-68
2021/12/14 19:30:48;;;;;;;48.03;9.45;;;;;;;-0.56;100.00;95818.78;5072670;28;20033;-68
2021/12/14 19:33:34;;;;;;;31.50;8.80;;;;;;;-0.54;100.00;95822.06;5072790;28;20020;-68
2021/12/14 19:36:01;;;;;;;20.83;8.52;;;;;;;-0.51;100.00;95826.16;5073039;28;20025;-68
2021/12/14 19:38:29;;;;;;;36.47;8.70;;;;;;;-0.49;100.00;95813.63;5055992;28;20024;-68
2021/12/14 19:41:05;;;;;;;15.50;9.40;;;;;;;-0.48;100.00;95821.34;5072231;28;20060;-68
2021/12/14 19:43:34;;;;;;;15.70;8.05;;;;;;;-0.48;100.00;95828.44;5072957;28;20459;-68
2021/12/14 19:46:05;;;;;;;39.00;10.00;;;;;;;-0.48;100.00;95818.72;5072628;28;20032;-68
2021/12/14 19:48:34;;;;;;;28.98;9.25;;;;;;;-0.45;100.00;95820.16;5072958;28;20024;-68
2021/12/14 19:51:08;;;;;;;19.08;8.57;;;;;;;-0.43;100.00;95831.34;5072758;28;20031;-68
2021/12/14 19:53:37;;;;;;;29.30;9.25;;;;;;;-0.39;100.00;95832.63;5072034;28;20024;-68
2021/12/14 19:56:05;;;;;;;20.35;8.68;;;;;;;-0.39;100.00;95828.19;5073965;28;20491;-68
2021/12/14 19:58:34;;;;;;;38.05;10.05;;;;;;;-0.36;100.00;95829.63;5073374;28;20096;-68
2021/12/14 20:01:06;;;;;;;22.98;8.90;;;;;;;-0.35;100.00;95831.25;5072280;28;20031;-68
2021/12/14 20:03:42;;;;;;;30.48;9.02;;;;;;;-0.34;100.00;95830.25;5072186;28;20028;-68
2021/12/14 20:06:18;;;;;;;45.25;10.20;;;;;;;-0.33;100.00;95837.16;5055770;28;20556;-68
2021/12/14 20:08:50;;;;;;;40.33;10.25;;;;;;;-0.32;100.00;95831.75;5073281;28;20029;-68
2021/12/14 20:11:24;;;;;;;48.47;9.73;;;;;;;-0.31;100.00;95840.47;5055499;28;20103;-68
2021/12/14 20:14:02;;;;;;;36.92;9.90;;;;;;;-0.32;100.00;95826.47;5055443;28;20502;-68
2021/12/14 20:16:32;;;;;;;41.20;10.05;;;;;;;-0.30;100.00;95831.56;5072202;28;20032;-68
2021/12/14 20:18:58;;;;;;;92.38;10.85;;;;;;;-0.30;100.00;95836.81;5055338;28;20059;-68
2021/12/14 20:21:27;;;;;;;28.50;9.13;;;;;;;-0.30;100.00;95837.63;5071739;28;20323;-68
2021/12/14 20:24:00;;;;;;;20.08;9.82;;;;;;;-0.30;100.00;95835.00;5053895;28;20663;-68
2021/12/14 20:26:42;;;;;;;57.92;9.95;;;;;;;-0.30;100.00;95835.00;5068591;28;20063;-68
2021/12/14 20:29:18;;;;;;;14.43;8.35;;;;;;;-0.30;100.00;95836.81;5071628;28;20107;-68
2021/12/14 20:31:56;;;;;;;43.60;9.32;;;;;;;-0.32;100.00;95830.94;5071465;28;20024;-68
2021/12/14 20:34:32;;;;;;;42.08;8.48;;;;;;;-0.32;100.00;95838.81;5055452;28;20338;-68
2021/12/14 20:36:58;;;;;;;36.63;8.50;;;;;;;-0.32;100.00;95838.81;5073007;28;20028;-68
2021/12/14 20:39:28;;;;;;;21.20;8.50;;;;;;;-0.32;100.00;95844.91;5054897;28;20028;-68
2021/12/14 20:42:04;;;;;;;31.83;8.60;;;;;;;-0.32;100.00;95841.47;5054865;28;20394;-68
2021/12/14 20:44:49;;;;;;;17.88;7.97;;;;;;;-0.33;100.00;95839.78;5055176;28;20111;-68
2021/12/14 20:47:16;;;;;;;41.90;7.90;;;;;;;-0.34;100.00;95835.53;5071654;28;20028;-68
2021/12/14 20:49:41;;;;;;;26.90;8.13;;;;;;;-0.36;100.00;95835.72;5072597;28;20115;-68
2021/12/14 20:52:10;;;;;;;24.58;7.55;;;;;;;-0.37;100.00;95828.81;5070777;28;20095;-68
2021/12/14 20:54:54;;;;;;;17.10;7.45;;;;;;;-0.37;100.00;95830.63;5051219;28;20316;-68
2021/12/14 20:57:21;;;;;;;14.80;7.82;;;;;;;-0.38;100.00;95827.19;5053819;28;20099;-68
2021/12/14 20:59:47;;;;;;;25.13;7.75;;;;;;;-0.39;100.00;95832.63;5071319;28;20043;-68
2021/12/14 21:02:31;;;;;;;23.13;7.95;;;;;;;-0.40;100.00;95831.00;5071994;28;20031;-68
2021/12/14 21:05:04;;;;;;;26.95;7.88;;;;;;;-0.40;100.00;95829.19;5072390;28;20033;-68
2021/12/14 21:07:30;;;;;;;30.30;7.70;;;;;;;-0.40;100.00;95829.19;5070844;28;20563;-68
2021/12/14 21:10:00;;;;;;;33.85;8.07;;;;;;;-0.38;100.00;95826.38;5071026;28;20111;-68
2021/12/14 21:12:27;;;;;;;30.60;8.73;;;;;;;-0.40;100.00;95820.47;5072224;28;20052;-68
2021/12/14 21:15:11;;;;;;;41.90;8.50;;;;;;;-0.41;100.00;95824.91;5054178;28;20024;-68
2021/12/14 21:17:46;;;;;;;24.17;8.57;;;;;;;-0.40;100.00;95815.19;5053982;28;20027;-68
2021/12/14 21:20:17;;;;;;;35.70;7.95;;;;;;;-0.40;100.00;95818.66;5071038;28;20078;-68
2021/12/14 21:22:47;;;;;;;41.38;8.18;;;;;;;-0.39;100.00;95820.28;5066394;28;20069;-68
2021/12/14 21:25:25;;;;;;;28.35;7.85;;;;;;;-0.40;100.00;95821.28;5035723;28;20028;-68
2021/12/14 21:27:59;;;;;;;28.63;8.13;;;;;;;-0.42;100.00;95818.00;5071771;28;20387;-68
2021/12/14 21:30:32;;;;;;;23.77;8.25;;;;;;;-0.42;100.00;95807.50;5053900;28;20422;-68
2021/12/14 21:33:08;;;;;;;25.48;8.07;;;;;;;-0.40;100.00;95823.09;5070154;28;20104;-68
2021/12/14 21:35:43;;;;;;;17.00;7.18;;;;;;;-0.41;100.00;95824.91;5062111;28;20028;-68
2021/12/14 21:38:16;;;;;;;28.17;8.27;;;;;;;-0.40;100.00;95816.00;5062300;28;20471;-68
2021/12/14 21:40:50;;;;;;;21.65;7.53;;;;;;;-0.39;100.00;95822.09;5065218;28;20024;-68
2021/12/14 21:46:39;;;;;;;22.08;7.75;;;;;;;-0.39;100.00;95830.00;5071539;28;20036;-69
2021/12/14 21:49:19;;;;;;;39.10;7.95;;;;;;;-0.39;100.00;95825.53;5072151;28;20391;-69
2021/12/14 21:51:48;;;;;;;30.92;8.52;;;;;;;-0.40;100.00;95823.91;5054309;28;20032;-69
2021/12/14 21:54:15;;;;;;;35.60;7.95;;;;;;;-0.40;100.00;95823.09;5054417;28;20078;-69
2021/12/14 21:56:40;;;;;;;37.03;8.15;;;;;;;-0.44;100.00;95827.88;5071010;28;20021;-68
2021/12/14 21:59:06;;;;;;;14.02;7.55;;;;;;;-0.43;100.00;95828.72;5071064;28;20024;-68
2021/12/14 22:01:32;;;;;;;27.58;8.23;;;;;;;-0.46;100.00;95835.13;5070774;28;20165;-68
2021/12/14 22:04:00;;;;;;;23.58;7.60;;;;;;;-0.43;100.00;95837.44;5054180;28;20068;-68
2021/12/14 22:06:26;;;;;;;27.58;7.75;;;;;;;-0.41;100.00;95839.88;5054202;28;20491;-69
2021/12/14 22:08:58;;;;;;;56.78;8.80;;;;;;;-0.41;100.00;95832.00;5070956;28;20028;-69
2021/12/14 22:11:24;;;;;;;39.13;8.38;;;;;;;-0.42;100.00;95840.88;5070891;28;20043;-69
2021/12/14 22:13:52;;;;;;;24.33;8.10;;;;;;;-0.43;100.00;95852.41;5072127;28;20074;-69